Time;durP1;ratioP1;P1;durP2;ratioP2;P2;SDS_P1;SDS_P2;PMS_P1;PMS_P2;Temp;Humidity;BMP_temperature;BMP_pressure;BME280_temperature;BME280_humidity;BME280_pressure;Samples;Min_cycle;Max_cycle;Signal;HPM_P1;HPM_P2
2023/05/22 00:02:42;;;;;;;5.53;2.20;;;;;;;;;;4907830;29;20044;-66
2023/05/22 00:06:14;;;;;;;7.68;2.63;;;;;;;;;;4914159;29;20512;-66
2023/05/22 00:09:55;;;;;;;6.00;2.38;;;;;;;;;;4910707;29;20056;-65
2023/05/22 00:13:35;;;;;;;5.35;2.40;;;;;;;;;;4911060;29;20047;-65
2023/05/22 00:17:15;;;;;;;4.50;2.03;;;;;;;;;;4910550;29;20056;-65
2023/05/22 00:20:56;;;;;;;5.65;2.33;;;;;;;;;;4912166;29;20067;-65
2023/05/22 00:24:37;;;;;;;5.65;2.50;;;;;;;;;;4909010;29;20530;-65
2023/05/22 00:28:16;;;;;;;4.10;2.15;;;;;;;;;;4915698;29;20040;-65
2023/05/22 00:31:57;;;;;;;7.07;1.92;;;;;;;;;;4911023;29;20417;-64
2023/05/22 00:35:37;;;;;;;4.65;2.08;;;;;;;;;;4907820;29;20080;-64
2023/05/22 00:39:17;;;;;;;4.78;2.13;;;;;;;;;;4914444;29;20544;-65
2023/05/22 00:42:58;;;;;;;6.15;2.00;;;;;;;;;;4911839;29;20051;-64
2023/05/22 00:46:38;;;;;;;4.82;1.80;;;;;;;;;;4911876;29;20131;-64
2023/05/22 00:50:18;;;;;;;8.25;2.30;;;;;;;;;;4906269;29;20043;-64
2023/05/22 00:53:59;;;;;;;6.35;2.47;;;;;;;;;;4898794;29;20048;-65
2023/05/22 00:57:40;;;;;;;4.70;2.00;;;;;;;;;;4914434;29;20044;-63
2023/05/22 01:01:19;;;;;;;6.15;1.98;;;;;;;;;;4912565;29;20780;-65
2023/05/22 01:04:59;;;;;;;5.32;2.10;;;;;;;;;;4913236;29;20055;-64
2023/05/22 01:08:40;;;;;;;7.60;2.17;;;;;;;;;;4908883;29;20516;-66
2023/05/22 01:12:13;;;;;;;8.48;2.20;;;;;;;;;;4912515;29;20063;-63
2023/05/22 01:15:19;;;;;;;5.20;1.75;;;;;;;;;;4911442;29;20505;-64
2023/05/22 01:19:01;;;;;;;5.80;2.10;;;;;;;;;;4906725;29;20058;-65
2023/05/22 01:22:20;;;;;;;5.50;1.90;;;;;;;;;;4910953;29;20056;-64
2023/05/22 01:25:58;;;;;;;7.07;1.80;;;;;;;;;;4912723;29;20624;-64
2023/05/22 01:29:43;;;;;;;5.25;1.85;;;;;;;;;;4911761;29;20095;-64
2023/05/22 01:33:26;;;;;;;6.10;1.73;;;;;;;;;;4911650;29;20040;-65
2023/05/22 01:37:09;;;;;;;5.53;1.80;;;;;;;;;;4911273;29;20056;-65
2023/05/22 01:40:49;;;;;;;6.60;1.80;;;;;;;;;;4908435;29;20432;-64
2023/05/22 01:44:30;;;;;;;7.55;2.17;;;;;;;;;;4906793;29;20072;-65
2023/05/22 01:48:11;;;;;;;4.53;1.60;;;;;;;;;;4911366;29;20052;-65
2023/05/22 01:51:42;;;;;;;6.68;1.90;;;;;;;;;;4907375;29;20611;-65
2023/05/22 01:55:29;;;;;;;5.45;1.80;;;;;;;;;;4911707;29;20066;-65
2023/05/22 01:59:12;;;;;;;5.47;1.48;;;;;;;;;;4910124;29;20131;-64
2023/05/22 02:02:52;;;;;;;3.15;1.70;;;;;;;;;;4911062;29;20048;-65
2023/05/22 02:06:32;;;;;;;5.55;1.67;;;;;;;;;;4911096;29;20067;-65
2023/05/22 02:10:13;;;;;;;4.43;2.05;;;;;;;;;;4913043;29;20044;-65
2023/05/22 02:13:53;;;;;;;6.28;1.73;;;;;;;;;;4911659;29;20044;-66
2023/05/22 02:17:34;;;;;;;7.97;1.85;;;;;;;;;;4911020;29;20055;-63
2023/05/22 02:21:16;;;;;;;4.50;1.85;;;;;;;;;;4910040;29;20064;-63
2023/05/22 02:24:56;;;;;;;3.95;1.90;;;;;;;;;;4910874;29;20067;-65
2023/05/22 02:28:37;;;;;;;2.55;1.80;;;;;;;;;;4910419;29;20044;-63
2023/05/22 02:32:17;;;;;;;4.00;1.80;;;;;;;;;;4908891;29;20079;-64
2023/05/22 02:35:57;;;;;;;2.83;2.05;;;;;;;;;;4910882;29;20415;-64
2023/05/22 02:39:38;;;;;;;6.65;1.80;;;;;;;;;;4910614;29;20421;-64
2023/05/22 02:43:18;;;;;;;5.05;2.10;;;;;;;;;;4908972;29;20130;-65
2023/05/22 02:46:58;;;;;;;4.18;1.63;;;;;;;;;;4911962;29;20063;-65
2023/05/22 02:50:39;;;;;;;4.10;1.80;;;;;;;;;;4904394;29;20553;-65
2023/05/22 02:54:20;;;;;;;3.63;2.10;;;;;;;;;;4911557;29;20092;-64
2023/05/22 02:58:00;;;;;;;3.20;1.58;;;;;;;;;;4910529;29;20079;-64
2023/05/22 03:01:40;;;;;;;4.80;1.83;;;;;;;;;;4910946;29;20452;-65
2023/05/22 03:05:20;;;;;;;5.63;2.08;;;;;;;;;;4916356;29;20047;-66
2023/05/22 03:09:02;;;;;;;5.15;1.95;;;;;;;;;;4915706;29;20051;-65
2023/05/22 03:12:41;;;;;;;8.73;2.13;;;;;;;;;;4916053;29;20119;-64
2023/05/22 03:16:21;;;;;;;3.63;1.77;;;;;;;;;;4909839;29;20040;-64
2023/05/22 03:20:02;;;;;;;3.60;2.20;;;;;;;;;;4912446;29;20457;-64
2023/05/22 03:23:42;;;;;;;6.10;2.10;;;;;;;;;;4914262;29;20048;-65
2023/05/22 03:27:22;;;;;;;5.10;2.40;;;;;;;;;;4915257;29;20457;-64
2023/05/22 03:31:02;;;;;;;5.32;2.28;;;;;;;;;;4906224;29;20253;-64
2023/05/22 03:34:44;;;;;;;6.85;2.20;;;;;;;;;;4914828;29;20047;-69
2023/05/22 03:38:25;;;;;;;6.43;2.13;;;;;;;;;;4911744;29;20044;-67
2023/05/22 03:42:04;;;;;;;4.57;2.15;;;;;;;;;;4913732;29;20051;-65
2023/05/22 03:45:46;;;;;;;6.70;2.78;;;;;;;;;;4920580;29;20506;-64
2023/05/22 03:49:26;;;;;;;8.13;2.67;;;;;;;;;;4914831;29;20505;-62
2023/05/22 03:53:07;;;;;;;4.05;2.55;;;;;;;;;;4909633;29;20055;-67
2023/05/22 03:56:48;;;;;;;7.85;2.40;;;;;;;;;;4912593;29;20079;-63
2023/05/22 04:00:30;;;;;;;5.80;2.33;;;;;;;;;;4915389;29;20046;-64
2023/05/22 04:04:10;;;;;;;5.63;2.92;;;;;;;;;;4904863;29;20164;-63
2023/05/22 04:07:49;;;;;;;8.02;3.05;;;;;;;;;;4915114;28;20493;-65
2023/05/22 04:11:30;;;;;;;7.53;3.45;;;;;;;;;;4906353;29;20055;-64
2023/05/22 04:15:10;;;;;;;8.15;3.10;;;;;;;;;;4914290;29;20048;-64
2023/05/22 04:18:50;;;;;;;7.70;2.83;;;;;;;;;;4910734;29;20079;-65
2023/05/22 04:22:32;;;;;;;6.47;2.83;;;;;;;;;;4913433;29;20269;-64
2023/05/22 04:26:12;;;;;;;4.57;2.58;;;;;;;;;;4915289;29;20056;-65
2023/05/22 04:29:52;;;;;;;8.88;2.80;;;;;;;;;;4913020;29;20112;-66
2023/05/22 04:33:33;;;;;;;9.15;2.78;;;;;;;;;;4913608;29;20068;-64
2023/05/22 04:37:13;;;;;;;9.57;3.22;;;;;;;;;;4913026;29;20102;-66
2023/05/22 04:40:53;;;;;;;7.07;3.58;;;;;;;;;;4915490;29;20051;-65
2023/05/22 04:44:34;;;;;;;6.25;3.10;;;;;;;;;;4911619;29;20436;-66
2023/05/22 04:48:14;;;;;;;9.57;2.75;;;;;;;;;;4913913;29;20048;-65
2023/05/22 04:51:54;;;;;;;4.90;2.42;;;;;;;;;;4912419;29;20108;-64
2023/05/22 04:55:35;;;;;;;6.47;2.95;;;;;;;;;;4911416;29;21271;-64
2023/05/22 04:59:15;;;;;;;7.07;2.83;;;;;;;;;;4915147;29;20543;-64
2023/05/22 05:02:56;;;;;;;7.05;2.78;;;;;;;;;;4911815;29;20048;-63
2023/05/22 05:05:56;;;;;;;6.35;2.83;;;;;;;;;;4913958;29;20119;-69
2023/05/22 05:08:22;;;;;;;7.90;2.88;;;;;;;;;;4911463;29;20186;-64
2023/05/22 05:10:48;;;;;;;4.68;2.83;;;;;;;;;;4908209;29;20071;-64
2023/05/22 05:13:14;;;;;;;5.57;2.85;;;;;;;;;;4903999;29;20056;-66
2023/05/22 05:15:40;;;;;;;7.57;2.55;;;;;;;;;;4906576;29;20055;-65
2023/05/22 05:18:06;;;;;;;6.00;2.63;;;;;;;;;;4896070;29;20063;-68
2023/05/22 05:20:32;;;;;;;7.40;2.60;;;;;;;;;;4907128;29;20063;-66
2023/05/22 05:22:59;;;;;;;6.38;2.80;;;;;;;;;;4908003;29;20059;-65
2023/05/22 05:25:25;;;;;;;6.10;2.70;;;;;;;;;;4911776;29;20134;-64
2023/05/22 05:27:51;;;;;;;5.75;2.80;;;;;;;;;;4911558;29;20044;-63
2023/05/22 05:30:17;;;;;;;8.18;2.60;;;;;;;;;;4908559;29;20135;-66
2023/05/22 05:32:45;;;;;;;8.40;2.78;;;;;;;;;;4906234;29;20076;-67
2023/05/22 05:35:11;;;;;;;8.65;2.80;;;;;;;;;;4917462;29;20150;-65
2023/05/22 05:37:38;;;;;;;5.35;2.50;;;;;;;;;;4910561;29;20052;-65
2023/05/22 05:40:08;;;;;;;5.63;2.20;;;;;;;;;;4911502;29;20048;-65
2023/05/22 05:42:34;;;;;;;4.40;2.45;;;;;;;;;;4912314;29;20135;-65
2023/05/22 05:45:00;;;;;;;6.22;2.80;;;;;;;;;;4909092;29;22632;-66
2023/05/22 05:47:52;;;;;;;8.75;2.70;;;;;;;;;;4900032;29;20048;-68
2023/05/22 05:50:25;;;;;;;5.78;2.70;;;;;;;;;;4903942;29;20052;-66
2023/05/22 05:52:51;;;;;;;;;;;;;;;;;;4905837;29;20493;-65
2023/05/22 05:55:17;;;;;;;8.20;2.97;;;;;;;;;;4912963;29;19937;-71
2023/05/22 05:57:44;;;;;;;7.53;3.22;;;;;;;;;;4903734;29;20515;-66
2023/05/22 06:00:12;;;;;;;9.38;2.88;;;;;;;;;;4911571;29;20056;-66
2023/05/22 06:02:38;;;;;;;8.02;3.20;;;;;;;;;;4911487;29;20048;-66
2023/05/22 06:05:07;;;;;;;7.90;3.13;;;;;;;;;;4913646;29;20075;-66
2023/05/22 06:07:36;;;;;;;6.75;3.13;;;;;;;;;;4911730;29;20056;-67
2023/05/22 06:10:07;;;;;;;7.38;3.28;;;;;;;;;;4912722;29;20120;-67
2023/05/22 06:12:34;;;;;;;7.03;3.45;;;;;;;;;;4911124;29;20040;-67
2023/05/22 06:15:00;;;;;;;7.43;3.63;;;;;;;;;;4912326;29;20052;-66
2023/05/22 06:17:27;;;;;;;11.13;4.53;;;;;;;;;;4906013;29;20055;-66
2023/05/22 06:19:54;;;;;;;14.38;4.55;;;;;;;;;;4913908;29;20052;-67
2023/05/22 06:22:20;;;;;;;12.60;4.95;;;;;;;;;;4913322;29;20052;-68
2023/05/22 06:24:46;;;;;;;13.15;5.18;;;;;;;;;;4911031;29;20048;-68
2023/05/22 06:27:13;;;;;;;13.93;4.70;;;;;;;;;;4910686;29;20131;-67
2023/05/22 06:29:39;;;;;;;7.78;4.80;;;;;;;;;;4911352;29;20582;-67
2023/05/22 06:32:05;;;;;;;9.30;5.25;;;;;;;;;;4906571;29;20120;-64
2023/05/22 06:34:31;;;;;;;9.18;5.13;;;;;;;;;;4909189;29;20056;-65
2023/05/22 06:36:57;;;;;;;11.60;5.65;;;;;;;;;;4908954;29;20461;-66
2023/05/22 06:39:23;;;;;;;13.20;5.50;;;;;;;;;;4911645;29;20389;-65
2023/05/22 06:41:49;;;;;;;10.40;7.10;;;;;;;;;;4905690;29;20078;-65
2023/05/22 06:44:16;;;;;;;11.82;5.90;;;;;;;;;;4916445;29;20500;-63
2023/05/22 06:46:43;;;;;;;14.15;7.68;;;;;;;;;;4907456;29;20051;-64
2023/05/22 06:49:09;;;;;;;14.23;7.03;;;;;;;;;;4909390;29;20285;-61
2023/05/22 06:51:35;;;;;;;14.52;8.90;;;;;;;;;;4910123;29;20052;-64
2023/05/22 06:54:03;;;;;;;16.23;6.47;;;;;;;;;;4909651;29;20037;-62
2023/05/22 06:56:30;;;;;;;16.13;6.75;;;;;;;;;;4909033;29;20108;-62
2023/05/22 06:58:57;;;;;;;13.98;6.57;;;;;;;;;;4910238;29;20051;-63
2023/05/22 07:01:23;;;;;;;9.90;6.15;;;;;;;;;;4910096;29;20067;-63
2023/05/22 07:03:49;;;;;;;13.90;5.78;;;;;;;;;;4912193;29;20044;-63
2023/05/22 07:06:16;;;;;;;11.75;5.50;;;;;;;;;;4912957;29;20060;-64
2023/05/22 07:08:42;;;;;;;14.50;5.45;;;;;;;;;;4912510;29;20089;-63
2023/05/22 07:11:08;;;;;;;9.30;5.65;;;;;;;;;;4914751;29;20059;-65
2023/05/22 07:13:35;;;;;;;13.00;5.90;;;;;;;;;;4911462;29;20143;-62
2023/05/22 07:16:01;;;;;;;12.32;6.57;;;;;;;;;;4910742;29;20063;-63
2023/05/22 07:18:28;;;;;;;10.57;5.90;;;;;;;;;;4911710;29;20104;-64
2023/05/22 07:20:54;;;;;;;10.35;5.75;;;;;;;;;;4911428;29;20063;-63
2023/05/22 07:23:20;;;;;;;11.48;6.25;;;;;;;;;;4914717;29;20044;-63
2023/05/22 07:25:47;;;;;;;14.02;6.32;;;;;;;;;;4906428;29;20413;-66
2023/05/22 07:28:13;;;;;;;13.88;6.68;;;;;;;;;;4909460;29;20052;-67
2023/05/22 07:31:19;;;;;;;13.18;7.10;;;;;;;;;;4913931;29;20056;-65
2023/05/22 07:34:59;;;;;;;14.40;6.38;;;;;;;;;;4904796;29;20048;-65
2023/05/22 07:38:41;;;;;;;9.75;6.65;;;;;;;;;;4908483;29;20052;-65
2023/05/22 07:42:22;;;;;;;11.02;4.63;;;;;;;;;;4908152;29;20083;-69
2023/05/22 07:46:02;;;;;;;9.00;5.35;;;;;;;;;;4908475;29;20404;-63
2023/05/22 07:49:42;;;;;;;11.23;5.80;;;;;;;;;;4914893;29;20032;-65
2023/05/22 07:53:23;;;;;;;8.63;5.25;;;;;;;;;;4906633;29;20123;-70
2023/05/22 07:56:27;;;;;;;10.48;5.85;;;;;;;;;;4910468;29;20062;-66
2023/05/22 07:59:33;;;;;;;10.30;6.03;;;;;;;;;;4909242;29;20103;-68
2023/05/22 08:03:13;;;;;;;11.90;6.20;;;;;;;;;;4909225;29;20051;-69
2023/05/22 08:06:53;;;;;;;10.30;6.35;;;;;;;;;;4910833;29;20045;-70
2023/05/22 08:10:34;;;;;;;11.85;7.20;;;;;;;;;;4907809;29;20052;-70
2023/05/22 08:14:14;;;;;;;8.80;5.30;;;;;;;;;;4914750;29;20044;-68
2023/05/22 08:17:54;;;;;;;11.02;5.97;;;;;;;;;;4915204;29;20060;-70
2023/05/22 08:21:36;;;;;;;6.35;5.10;;;;;;;;;;4906970;29;20056;-69
2023/05/22 08:25:15;;;;;;;10.88;5.68;;;;;;;;;;4913210;29;20160;-70
2023/05/22 08:28:55;;;;;;;7.18;4.13;;;;;;;;;;4911516;29;20048;-69
2023/05/22 08:32:36;;;;;;;9.75;4.47;;;;;;;;;;4914967;29;20107;-68
2023/05/22 08:36:16;;;;;;;9.68;4.78;;;;;;;;;;4911610;29;20076;-68
2023/05/22 08:39:57;;;;;;;10.20;5.10;;;;;;;;;;4915742;29;20111;-67
2023/05/22 08:43:37;;;;;;;12.70;6.00;;;;;;;;;;4912938;29;20382;-66
2023/05/22 08:47:19;;;;;;;12.45;6.68;;;;;;;;;;4911889;29;20390;-66
2023/05/22 08:50:58;;;;;;;10.43;6.32;;;;;;;;;;4911057;29;20052;-67
2023/05/22 08:54:38;;;;;;;13.35;6.60;;;;;;;;;;4909539;29;20056;-68
2023/05/22 08:58:18;;;;;;;14.75;7.13;;;;;;;;;;4912208;29;20052;-66
2023/05/22 09:01:59;;;;;;;13.10;6.63;;;;;;;;;;4896929;29;20077;-68
2023/05/22 09:05:40;;;;;;;14.85;6.63;;;;;;;;;;4902155;29;20485;-67
2023/05/22 09:09:20;;;;;;;17.52;6.40;;;;;;;;;;4911357;29;20048;-67
2023/05/22 09:13:00;;;;;;;9.40;5.00;;;;;;;;;;4910674;29;20048;-66
2023/05/22 09:16:06;;;;;;;13.90;5.05;;;;;;;;;;4909376;29;20493;-66
2023/05/22 09:19:47;;;;;;;9.10;4.38;;;;;;;;;;4907598;29;20056;-66
2023/05/22 09:23:30;;;;;;;10.00;4.72;;;;;;;;;;4911811;29;20048;-68
2023/05/22 09:27:10;;;;;;;10.18;4.80;;;;;;;;;;4908574;29;20060;-68
2023/05/22 09:30:52;;;;;;;12.93;5.13;;;;;;;;;;4912812;29;20071;-68
2023/05/22 09:34:32;;;;;;;9.75;4.80;;;;;;;;;;4907468;29;20040;-73
2023/05/22 09:38:13;;;;;;;9.25;4.53;;;;;;;;;;4913670;29;20055;-69
2023/05/22 09:41:53;;;;;;;9.55;5.13;;;;;;;;;;4910341;29;20051;-69
2023/05/22 09:45:33;;;;;;;9.25;4.82;;;;;;;;;;4909229;29;20059;-66
2023/05/22 09:49:15;;;;;;;8.93;4.93;;;;;;;;;;4911307;29;20557;-70
2023/05/22 09:52:55;;;;;;;13.63;5.40;;;;;;;;;;4910643;29;20044;-69
2023/05/22 09:56:36;;;;;;;12.90;4.93;;;;;;;;;;4912744;29;20405;-68
2023/05/22 10:00:17;;;;;;;12.88;5.38;;;;;;;;;;4911549;29;20063;-68
2023/05/22 10:03:57;;;;;;;19.67;6.05;;;;;;;;;;4905736;29;21040;-67
2023/05/22 10:07:37;;;;;;;10.18;4.07;;;;;;;;;;4912075;29;20102;-70
2023/05/22 10:11:18;;;;;;;6.28;3.92;;;;;;;;;;4910971;29;20048;-68
2023/05/22 10:14:59;;;;;;;7.93;3.88;;;;;;;;;;4911594;29;20052;-68
2023/05/22 10:18:39;;;;;;;6.85;3.67;;;;;;;;;;4910267;29;20086;-68
2023/05/22 10:22:21;;;;;;;7.28;2.97;;;;;;;;;;4911736;29;20188;-67
2023/05/22 10:26:00;;;;;;;6.05;2.65;;;;;;;;;;4908816;29;20070;-67
2023/05/22 10:29:46;;;;;;;7.18;2.20;;;;;;;;;;4911207;29;20048;-69
2023/05/22 10:33:10;;;;;;;7.55;2.22;;;;;;;;;;4913375;29;20044;-72
2023/05/22 10:36:42;;;;;;;3.33;2.00;;;;;;;;;;4910018;29;20094;-67
2023/05/22 10:40:28;;;;;;;9.45;2.40;;;;;;;;;;4912632;29;20189;-66
2023/05/22 10:44:08;;;;;;;7.38;2.38;;;;;;;;;;4910571;29;20056;-67
2023/05/22 10:47:49;;;;;;;5.80;2.20;;;;;;;;;;4908008;29;20505;-69
2023/05/22 10:51:37;;;;;;;8.05;2.70;;;;;;;;;;4909465;29;20040;-68
2023/05/22 10:54:57;;;;;;;9.02;2.75;;;;;;;;;;4908762;29;20055;-66
2023/05/22 10:58:43;;;;;;;5.82;2.30;;;;;;;;;;4910927;29;20115;-67
2023/05/22 11:02:27;;;;;;;6.40;2.00;;;;;;;;;;4910460;29;20055;-68
2023/05/22 11:05:24;;;;;;;3.13;1.98;;;;;;;;;;4908544;29;20103;-66
2023/05/22 11:08:25;;;;;;;6.88;2.38;;;;;;;;;;4913020;29;20564;-67
2023/05/22 11:12:05;;;;;;;4.72;2.13;;;;;;;;;;4909756;29;20408;-66
2023/05/22 11:15:51;;;;;;;6.63;2.10;;;;;;;;;;4911803;29;20047;-67
2023/05/22 11:19:33;;;;;;;3.70;2.25;;;;;;;;;;4903713;29;20067;-68
2023/05/22 11:23:19;;;;;;;5.10;2.17;;;;;;;;;;4911987;29;20048;-67
2023/05/22 11:26:40;;;;;;;;;;;;;;;;;;4912210;29;20052;-66
2023/05/22 11:30:20;;;;;;;3.08;1.80;;;;;;;;;;4909796;29;19923;-67
2023/05/22 11:34:00;;;;;;;5.88;2.30;;;;;;;;;;4908669;29;20044;-68
2023/05/22 11:37:41;;;;;;;5.88;2.20;;;;;;;;;;4913391;29;20400;-67
2023/05/22 11:41:23;;;;;;;7.28;2.58;;;;;;;;;;4911327;29;20059;-69
2023/05/22 11:45:05;;;;;;;7.10;2.42;;;;;;;;;;4914797;29;20048;-68
2023/05/22 11:48:45;;;;;;;9.93;2.40;;;;;;;;;;4908766;29;20048;-67
2023/05/22 11:52:26;;;;;;;9.15;3.05;;;;;;;;;;4909788;29;20518;-67
2023/05/22 11:56:06;;;;;;;11.13;2.78;;;;;;;;;;4912023;29;20114;-68
2023/05/22 11:59:46;;;;;;;9.25;2.90;;;;;;;;;;4912835;29;20056;-68
2023/05/22 12:03:27;;;;;;;9.70;2.90;;;;;;;;;;4914381;29;20055;-67
2023/05/22 12:07:07;;;;;;;7.93;3.38;;;;;;;;;;4910825;29;20515;-68
2023/05/22 12:10:47;;;;;;;8.05;2.92;;;;;;;;;;4910946;29;20177;-68
2023/05/22 12:14:28;;;;;;;8.25;2.55;;;;;;;;;;4909972;29;20390;-69
2023/05/22 12:18:08;;;;;;;7.05;2.40;;;;;;;;;;4909682;29;20044;-71
2023/05/22 12:21:50;;;;;;;6.75;2.30;;;;;;;;;;4909648;29;20055;-70
2023/05/22 12:25:33;;;;;;;5.30;2.03;;;;;;;;;;4909800;29;20052;-68
2023/05/22 12:29:13;;;;;;;6.10;2.17;;;;;;;;;;4910270;29;20082;-75
2023/05/22 12:32:53;;;;;;;7.63;2.30;;;;;;;;;;4905920;29;20127;-67
2023/05/22 12:36:35;;;;;;;6.00;2.42;;;;;;;;;;4910551;29;20044;-69
2023/05/22 12:40:18;;;;;;;5.05;2.00;;;;;;;;;;4910772;29;20149;-70
2023/05/22 12:44:00;;;;;;;8.10;2.33;;;;;;;;;;4908704;29;20079;-73
2023/05/22 12:47:39;;;;;;;8.13;2.20;;;;;;;;;;4910083;29;20056;-68
2023/05/22 12:51:19;;;;;;;3.28;1.77;;;;;;;;;;4912117;29;20052;-69
2023/05/22 12:54:59;;;;;;;5.72;2.42;;;;;;;;;;4910511;29;20441;-68
2023/05/22 12:58:40;;;;;;;8.50;2.30;;;;;;;;;;4913949;29;20048;-70
2023/05/22 13:02:20;;;;;;;6.30;2.22;;;;;;;;;;4908946;29;20578;-70
2023/05/22 13:06:00;;;;;;;4.82;2.33;;;;;;;;;;4909981;29;20171;-74
2023/05/22 13:09:41;;;;;;;7.57;2.33;;;;;;;;;;4912689;29;20449;-68
2023/05/22 13:13:21;;;;;;;8.13;2.13;;;;;;;;;;4911552;29;20509;-69
2023/05/22 13:17:01;;;;;;;6.78;2.13;;;;;;;;;;4910893;29;20059;-66
2023/05/22 13:20:42;;;;;;;7.03;2.97;;;;;;;;;;4908685;29;20099;-69
2023/05/22 13:24:22;;;;;;;5.90;2.05;;;;;;;;;;4909151;29;20056;-67
2023/05/22 13:28:03;;;;;;;7.13;2.38;;;;;;;;;;4913485;29;20060;-67
2023/05/22 13:31:43;;;;;;;10.00;2.28;;;;;;;;;;4909055;29;20076;-69
2023/05/22 13:35:23;;;;;;;5.85;2.45;;;;;;;;;;4913827;29;20701;-70
2023/05/22 13:39:04;;;;;;;6.63;2.50;;;;;;;;;;4908817;29;20036;-67
2023/05/22 13:42:44;;;;;;;7.85;1.92;;;;;;;;;;4911399;29;20059;-67
2023/05/22 13:46:25;;;;;;;4.53;2.30;;;;;;;;;;4909716;29;20516;-67
2023/05/22 13:50:05;;;;;;;5.45;2.30;;;;;;;;;;4907180;29;20044;-67
2023/05/22 13:53:45;;;;;;;7.65;2.33;;;;;;;;;;4902658;29;20056;-66
2023/05/22 13:57:25;;;;;;;11.07;2.47;;;;;;;;;;4906758;29;20052;-68
2023/05/22 14:01:07;;;;;;;7.20;2.30;;;;;;;;;;4911233;29;20048;-67
2023/05/22 14:04:47;;;;;;;8.13;2.58;;;;;;;;;;4911980;29;20105;-67
2023/05/22 14:08:28;;;;;;;7.70;2.75;;;;;;;;;;4908579;29;20127;-68
2023/05/22 14:12:10;;;;;;;8.75;2.50;;;;;;;;;;4910716;29;20412;-68
2023/05/22 14:15:50;;;;;;;8.50;2.78;;;;;;;;;;4913087;29;20050;-70
2023/05/22 14:19:30;;;;;;;6.43;2.88;;;;;;;;;;4909724;29;20111;-66
2023/05/22 14:23:11;;;;;;;5.53;2.75;;;;;;;;;;4908053;29;20085;-68
2023/05/22 14:26:56;;;;;;;8.43;2.72;;;;;;;;;;4912127;29;20142;-68
2023/05/22 14:30:32;;;;;;;5.55;3.25;;;;;;;;;;4912662;29;20051;-68
2023/05/22 14:34:12;;;;;;;7.72;2.83;;;;;;;;;;4912438;29;20048;-67
2023/05/22 14:37:54;;;;;;;5.97;2.85;;;;;;;;;;4911071;29;20047;-66
2023/05/22 14:41:34;;;;;;;7.25;2.70;;;;;;;;;;4912834;29;20637;-68
2023/05/22 14:45:14;;;;;;;6.00;2.67;;;;;;;;;;4904055;29;20040;-67
2023/05/22 14:48:56;;;;;;;4.07;2.30;;;;;;;;;;4910983;29;20055;-65
2023/05/22 14:52:36;;;;;;;6.05;2.33;;;;;;;;;;4905738;29;20048;-70
2023/05/22 14:56:18;;;;;;;5.32;2.30;;;;;;;;;;4912914;29;20044;-68
2023/05/22 14:59:58;;;;;;;3.80;2.13;;;;;;;;;;4914101;29;20056;-67
2023/05/22 15:03:40;;;;;;;5.97;2.33;;;;;;;;;;4910863;29;20052;-67
2023/05/22 15:07:21;;;;;;;11.35;2.72;;;;;;;;;;4909482;29;20079;-68
2023/05/22 15:11:02;;;;;;;7.07;2.72;;;;;;;;;;4910944;29;20564;-67
2023/05/22 15:14:42;;;;;;;7.03;2.30;;;;;;;;;;4909497;29;20096;-66
2023/05/22 15:18:22;;;;;;;6.32;2.25;;;;;;;;;;4914613;29;20404;-68
2023/05/22 15:22:03;;;;;;;4.55;2.30;;;;;;;;;;4914574;29;20063;-68
2023/05/22 15:25:43;;;;;;;6.32;3.13;;;;;;;;;;4911602;29;20048;-67
2023/05/22 15:29:24;;;;;;;8.20;2.67;;;;;;;;;;4910030;29;20052;-68
2023/05/22 15:33:05;;;;;;;10.25;3.00;;;;;;;;;;4915385;29;20052;-67
2023/05/22 15:36:46;;;;;;;9.63;3.20;;;;;;;;;;4916784;29;20067;-68
2023/05/22 15:40:26;;;;;;;4.47;2.83;;;;;;;;;;4908727;29;20076;-68
2023/05/22 15:44:06;;;;;;;6.05;3.20;;;;;;;;;;4909174;29;20047;-73
2023/05/22 15:47:47;;;;;;;9.00;3.20;;;;;;;;;;4917306;29;20404;-68
2023/05/22 15:51:27;;;;;;;11.70;3.13;;;;;;;;;;4916102;29;20043;-66
2023/05/22 15:55:07;;;;;;;8.00;2.80;;;;;;;;;;4908629;29;20575;-72
2023/05/22 15:58:49;;;;;;;5.55;2.70;;;;;;;;;;4908210;29;20096;-67
2023/05/22 16:02:29;;;;;;;5.70;2.90;;;;;;;;;;4908482;29;20100;-69
2023/05/22 16:06:11;;;;;;;4.63;2.90;;;;;;;;;;4906087;29;20048;-68
2023/05/22 16:09:51;;;;;;;6.78;2.60;;;;;;;;;;4911983;29;20047;-69
2023/05/22 16:13:32;;;;;;;7.03;3.15;;;;;;;;;;4913785;29;20080;-68
2023/05/22 16:17:12;;;;;;;3.50;2.53;;;;;;;;;;4910957;29;20481;-70
2023/05/22 16:20:52;;;;;;;4.00;2.45;;;;;;;;;;4912504;29;20060;-69
2023/05/22 16:24:33;;;;;;;4.82;2.47;;;;;;;;;;4907128;29;20071;-68
2023/05/22 16:28:13;;;;;;;6.03;2.92;;;;;;;;;;4912697;29;20079;-68
2023/05/22 16:31:53;;;;;;;9.30;2.50;;;;;;;;;;4912794;29;20055;-68
2023/05/22 16:35:34;;;;;;;7.63;2.70;;;;;;;;;;4908796;29;20390;-68
2023/05/22 16:39:14;;;;;;;11.52;3.15;;;;;;;;;;4914620;29;20060;-72
2023/05/22 16:42:55;;;;;;;5.53;2.55;;;;;;;;;;4911549;29;20526;-68
2023/05/22 16:46:35;;;;;;;10.45;3.03;;;;;;;;;;4913564;29;20147;-67
2023/05/22 16:50:15;;;;;;;4.28;2.55;;;;;;;;;;4912561;29;20048;-69
2023/05/22 16:53:57;;;;;;;7.25;3.47;;;;;;;;;;4914388;29;20065;-69
2023/05/22 16:57:38;;;;;;;6.45;2.47;;;;;;;;;;4912245;29;20142;-67
2023/05/22 17:01:20;;;;;;;6.18;2.85;;;;;;;;;;4913095;29;20135;-69
2023/05/22 17:04:58;;;;;;;6.18;2.78;;;;;;;;;;4905166;29;20044;-70
2023/05/22 17:08:38;;;;;;;6.10;2.78;;;;;;;;;;4912660;29;20517;-68
2023/05/22 17:12:19;;;;;;;4.72;3.20;;;;;;;;;;4906461;29;20044;-67
2023/05/22 17:15:59;;;;;;;7.15;3.42;;;;;;;;;;4907180;29;20127;-68
2023/05/22 17:19:40;;;;;;;6.25;2.70;;;;;;;;;;4905782;29;20562;-65
2023/05/22 17:23:20;;;;;;;6.20;3.40;;;;;;;;;;4909403;29;20071;-69
2023/05/22 17:27:02;;;;;;;7.03;3.33;;;;;;;;;;4914539;29;20055;-67
2023/05/22 17:30:41;;;;;;;6.07;3.15;;;;;;;;;;4914050;29;20051;-67
2023/05/22 17:34:23;;;;;;;6.25;3.38;;;;;;;;;;4908296;29;20044;-68
2023/05/22 17:38:01;;;;;;;6.18;3.97;;;;;;;;;;4906360;29;20085;-68
2023/05/22 17:41:43;;;;;;;7.15;3.50;;;;;;;;;;4911904;29;20043;-68
2023/05/22 17:45:23;;;;;;;7.32;3.95;;;;;;;;;;4909567;29;20052;-66
2023/05/22 17:49:04;;;;;;;8.75;4.53;;;;;;;;;;4909886;29;20048;-66
2023/05/22 17:52:28;;;;;;;6.55;3.50;;;;;;;;;;4903211;29;20098;-67
2023/05/22 17:54:54;;;;;;;7.32;3.60;;;;;;;;;;4902445;29;20059;-67
2023/05/22 17:57:21;;;;;;;6.53;3.58;;;;;;;;;;4909238;29;20089;-66
2023/05/22 17:59:47;;;;;;;6.07;3.72;;;;;;;;;;4910427;29;20060;-71
2023/05/22 18:02:12;;;;;;;4.68;3.40;;;;;;;;;;4909050;29;20059;-66
2023/05/22 18:04:38;;;;;;;6.88;3.30;;;;;;;;;;4907360;29;20055;-67
2023/05/22 18:07:04;;;;;;;5.45;3.50;;;;;;;;;;4906328;29;20051;-67
2023/05/22 18:09:31;;;;;;;8.15;3.63;;;;;;;;;;4908207;29;20433;-67
2023/05/22 18:12:00;;;;;;;9.85;3.63;;;;;;;;;;4905572;29;20072;-66
2023/05/22 18:14:26;;;;;;;8.73;3.70;;;;;;;;;;4906019;29;20520;-68
2023/05/22 18:16:52;;;;;;;5.22;3.33;;;;;;;;;;4907505;29;20139;-66
2023/05/22 18:19:20;;;;;;;5.75;3.15;;;;;;;;;;4909589;29;20067;-68
2023/05/22 18:21:47;;;;;;;9.00;4.18;;;;;;;;;;4909324;29;20058;-68
2023/05/22 18:24:14;;;;;;;7.97;3.55;;;;;;;;;;4928174;29;20044;-69
2023/05/22 18:26:39;;;;;;;8.75;4.30;;;;;;;;;;4911735;29;20411;-67
2023/05/22 18:29:07;;;;;;;7.72;3.85;;;;;;;;;;4908493;29;20052;-66
2023/05/22 18:31:32;;;;;;;8.27;3.40;;;;;;;;;;4910143;29;20055;-66
2023/05/22 18:33:58;;;;;;;7.43;3.92;;;;;;;;;;4906904;29;20053;-70
2023/05/22 18:36:26;;;;;;;5.15;3.60;;;;;;;;;;4907481;29;20201;-67
2023/05/22 18:38:53;;;;;;;10.98;4.10;;;;;;;;;;4912313;29;20072;-66
2023/05/22 18:41:20;;;;;;;5.57;3.90;;;;;;;;;;4912457;29;20079;-66
2023/05/22 18:43:46;;;;;;;8.15;4.28;;;;;;;;;;4912484;29;20052;-69
2023/05/22 18:46:12;;;;;;;10.25;3.70;;;;;;;;;;4911102;29;20394;-68
2023/05/22 18:48:44;;;;;;;6.53;4.00;;;;;;;;;;4905168;29;20060;-65
2023/05/22 18:51:10;;;;;;;7.13;4.30;;;;;;;;;;4902929;29;20107;-71
2023/05/22 18:54:18;;;;;;;9.57;4.45;;;;;;;;;;4899221;29;20864;-69
2023/05/22 18:57:32;;;;;;;9.03;3.80;;;;;;;;;;4905431;29;20036;-67
2023/05/22 19:00:34;;;;;;;8.63;4.63;;;;;;;;;;4904473;29;20474;-69
2023/05/22 19:03:00;;;;;;;9.20;4.28;;;;;;;;;;4905267;29;20056;-66
2023/05/22 19:05:29;;;;;;;7.38;4.10;;;;;;;;;;4909833;29;20064;-70
2023/05/22 19:07:56;;;;;;;7.00;4.13;;;;;;;;;;4908514;29;20100;-69
2023/05/22 19:10:22;;;;;;;9.07;4.00;;;;;;;;;;4905577;29;20044;-66
2023/05/22 19:12:48;;;;;;;6.82;4.35;;;;;;;;;;4908793;29;20056;-67
2023/05/22 19:15:13;;;;;;;5.88;4.05;;;;;;;;;;4908877;29;20063;-69
2023/05/22 19:17:41;;;;;;;7.70;4.18;;;;;;;;;;4907187;29;20042;-68
2023/05/22 19:20:08;;;;;;;7.35;4.25;;;;;;;;;;4902624;29;20397;-69
2023/05/22 19:22:36;;;;;;;8.60;4.63;;;;;;;;;;4904304;29;20052;-66
2023/05/22 19:25:02;;;;;;;11.73;4.15;;;;;;;;;;4896907;29;20052;-66
2023/05/22 19:27:28;;;;;;;8.93;4.07;;;;;;;;;;4902878;29;20048;-65
2023/05/22 19:29:55;;;;;;;6.60;3.95;;;;;;;;;;4904203;29;20414;-65
2023/05/22 19:32:22;;;;;;;9.63;4.65;;;;;;;;;;4905777;29;20568;-67
2023/05/22 19:34:48;;;;;;;7.85;4.35;;;;;;;;;;4909123;29;20496;-70
2023/05/22 19:37:22;;;;;;;7.45;4.55;;;;;;;;;;4900537;29;20062;-69
2023/05/22 19:39:52;;;;;;;8.50;4.15;;;;;;;;;;4906374;29;20048;-68
2023/05/22 19:42:18;;;;;;;9.63;4.15;;;;;;;;;;4906841;29;20054;-69
2023/05/22 19:44:47;;;;;;;8.68;4.60;;;;;;;;;;4905711;29;20048;-70
2023/05/22 19:47:13;;;;;;;10.40;4.32;;;;;;;;;;4908752;29;20056;-68